Tsogt-Ovoo, Mongolia
Current Conditions -  °F | °C
As of 8:00 PM on Sunday 23 Nov 2014 (Local Time) from ZMUB Reporting Station
Clear Clear  
Wind Chill:   Ceiling: Unl
Heat Index:   Visibility: 6mi
Dew Point: -6°   Wind: 0mph
Humidity: 66%   Direction: NA
Pressure: 30.12"   Gusts: NA
Location:  44.42°N, 105.32°E
Report Text: ZMUB 231200Z 00000MPS CAVOK M16/M21 Q1020 NOSIG RMK QFE657.3 70
Loading
Personal Weather Stations






























Interactive Weather Map New forecast layout! Learn more

10-Day Weather Forecast

Advertisements
Track Severe Weather on mobile